Time;durP1;ratioP1;P1;durP2;ratioP2;P2;SDS_P1;SDS_P2;PMS_P1;PMS_P2;Temp;Humidity;BMP_temperature;BMP_pressure;BME280_temperature;BME280_humidity;BME280_pressure;Samples;Min_cycle;Max_cycle;Signal;HPM_P1;HPM_P2
2022/03/22 00:00:03;;;;;;;3.50;2.40;;;;;;;-148.56;100.00;61375.16;4971023;28;20033;-36
2022/03/22 00:02:28;;;;;;;3.15;2.20;;;;;;;-148.56;100.00;61375.16;4970020;28;20030;-34
2022/03/22 00:04:53;;;;;;;3.03;2.20;;;;;;;-148.56;100.00;61375.16;4970837;28;20398;-36
2022/03/22 00:07:19;;;;;;;4.43;2.22;;;;;;;-148.56;100.00;61375.16;4969306;28;20854;-38
2022/03/22 00:09:44;;;;;;;3.80;2.38;;;;;;;-148.56;100.00;61375.16;4969996;28;20042;-37
2022/03/22 00:12:10;;;;;;;2.92;2.33;;;;;;;-148.56;100.00;61375.16;4970874;28;20034;-35
2022/03/22 00:14:35;;;;;;;5.65;2.45;;;;;;;-148.56;100.00;61375.16;4969774;28;21129;-38
2022/03/22 00:17:03;;;;;;;4.57;2.38;;;;;;;-148.56;100.00;61375.16;4971351;28;20027;-38
2022/03/22 00:19:29;;;;;;;4.60;2.10;;;;;;;-148.56;100.00;61375.16;4970655;28;20030;-38
2022/03/22 00:21:54;;;;;;;3.25;2.15;;;;;;;-148.56;100.00;61375.16;4971109;28;20031;-33
2022/03/22 00:24:19;;;;;;;6.13;2.30;;;;;;;-148.56;100.00;61375.16;4967918;28;20038;-38
2022/03/22 00:26:45;;;;;;;4.05;2.20;;;;;;;-148.56;100.00;61375.16;4970472;28;20165;-38
2022/03/22 00:29:10;;;;;;;3.58;2.30;;;;;;;-148.56;100.00;61375.16;4970270;28;20112;-38
2022/03/22 00:31:35;;;;;;;3.72;2.40;;;;;;;-148.56;100.00;61375.16;4972090;28;20035;-35
2022/03/22 00:34:01;;;;;;;6.65;2.40;;;;;;;-148.56;100.00;61375.16;4970633;28;20065;-37
2022/03/22 00:36:26;;;;;;;3.53;2.28;;;;;;;-148.56;100.00;61375.16;4952546;28;20042;-32
2022/03/22 00:38:52;;;;;;;4.25;2.50;;;;;;;-148.56;100.00;61375.16;4971620;28;20027;-34
2022/03/22 00:41:18;;;;;;;3.55;2.28;;;;;;;-148.56;100.00;61375.16;4971493;28;20033;-36
2022/03/22 00:43:44;;;;;;;2.85;2.25;;;;;;;-148.56;100.00;61375.16;4966802;28;20114;-35
2022/03/22 00:46:09;;;;;;;4.10;2.13;;;;;;;-148.56;100.00;61375.16;4969767;28;20027;-35
2022/03/22 00:48:35;;;;;;;3.72;2.40;;;;;;;-148.56;100.00;61375.16;4970513;28;20031;-35
2022/03/22 00:51:00;;;;;;;4.38;2.22;;;;;;;-148.56;100.00;61375.16;4971441;28;20049;-35
2022/03/22 00:53:26;;;;;;;3.65;2.08;;;;;;;-148.56;100.00;61375.16;4970845;28;20042;-39
2022/03/22 00:55:51;;;;;;;3.92;2.30;;;;;;;-148.56;100.00;61375.16;4970054;28;20803;-36
2022/03/22 00:58:17;;;;;;;4.28;2.33;;;;;;;-148.56;100.00;61375.16;4970430;28;20038;-33
2022/03/22 01:00:43;;;;;;;3.15;2.17;;;;;;;-148.56;100.00;61375.16;4967904;28;20589;-36
2022/03/22 01:03:09;;;;;;;4.00;2.20;;;;;;;-148.56;100.00;61375.16;4970639;28;20061;-33
2022/03/22 01:05:35;;;;;;;2.80;2.10;;;;;;;-148.56;100.00;61375.16;4968997;28;20038;-39
2022/03/22 01:08:05;;;;;;;3.15;2.25;;;;;;;-148.56;100.00;61375.16;4966995;28;20057;-37
2022/03/22 01:10:31;;;;;;;3.15;2.00;;;;;;;-148.56;100.00;61375.16;4971689;28;20493;-36
2022/03/22 01:12:57;;;;;;;3.70;2.10;;;;;;;-148.56;100.00;61375.16;4972208;28;20034;-34
2022/03/22 01:15:28;;;;;;;2.58;1.90;;;;;;;-148.56;100.00;61375.16;4967003;28;20109;-34
2022/03/22 01:17:54;;;;;;;5.47;2.50;;;;;;;-148.56;100.00;61375.16;4965481;28;20040;-36
2022/03/22 01:20:21;;;;;;;4.88;2.25;;;;;;;-148.56;100.00;61375.16;4955984;28;20034;-38
2022/03/22 01:22:47;;;;;;;4.68;2.17;;;;;;;-148.56;100.00;61375.16;4970529;28;20034;-36
2022/03/22 01:25:19;;;;;;;4.45;2.38;;;;;;;-148.56;100.00;61375.16;4967865;28;20516;-37
2022/03/22 01:27:48;;;;;;;3.92;2.25;;;;;;;-148.56;100.00;61375.16;4968361;28;20632;-34
2022/03/22 01:30:15;;;;;;;3.03;1.90;;;;;;;-148.56;100.00;61375.16;4969097;28;20031;-37
2022/03/22 01:32:41;;;;;;;4.35;2.10;;;;;;;-148.56;100.00;61375.16;4969539;28;20027;-36
2022/03/22 01:35:10;;;;;;;2.70;2.25;;;;;;;-148.56;100.00;61375.16;4968680;28;20686;-33
2022/03/22 01:37:37;;;;;;;3.47;2.08;;;;;;;-148.56;100.00;61375.16;4953178;28;20034;-32
2022/03/22 01:40:06;;;;;;;3.42;2.08;;;;;;;-148.56;100.00;61375.16;4969402;28;20030;-36
2022/03/22 01:42:31;;;;;;;3.42;2.10;;;;;;;-148.56;100.00;61375.16;4968876;28;20153;-34
2022/03/22 01:44:57;;;;;;;3.10;2.30;;;;;;;-148.56;100.00;61375.16;4966073;28;20034;-37
2022/03/22 01:47:25;;;;;;;3.20;2.15;;;;;;;-148.56;100.00;61375.16;4968205;28;20034;-36
2022/03/22 01:49:51;;;;;;;3.13;2.28;;;;;;;-148.56;100.00;61375.16;4967689;28;20162;-37
2022/03/22 01:52:25;;;;;;;2.67;2.00;;;;;;;-148.56;100.00;61375.16;4970521;28;20045;-33
2022/03/22 01:54:51;;;;;;;3.83;2.20;;;;;;;-148.56;100.00;61375.16;4964347;28;20425;-28
2022/03/22 01:57:17;;;;;;;2.97;2.30;;;;;;;-148.56;100.00;61375.16;4968066;28;20844;-37
2022/03/22 01:59:46;;;;;;;3.42;2.00;;;;;;;-148.56;100.00;61375.16;4967898;28;20026;-37
2022/03/22 02:07:39;;;;;;;4.05;2.40;;;;;;;-148.56;100.00;61375.16;4967634;28;20684;-37
2022/03/22 02:10:05;;;;;;;3.78;2.50;;;;;;;-148.56;100.00;61375.16;4952496;28;20050;-35
2022/03/22 02:12:31;;;;;;;3.17;2.13;;;;;;;-148.56;100.00;61375.16;4966340;28;20022;-32
2022/03/22 02:14:56;;;;;;;3.15;2.20;;;;;;;-148.56;100.00;61375.16;4966377;28;20039;-35
2022/03/22 02:17:21;;;;;;;3.28;1.90;;;;;;;-148.56;100.00;61375.16;4967594;28;20037;-38
2022/03/22 02:19:47;;;;;;;3.78;2.28;;;;;;;-148.56;100.00;61375.16;4967868;28;20085;-33
2022/03/22 02:22:18;;;;;;;5.80;2.35;;;;;;;-148.56;100.00;61375.16;4967744;28;20030;-37
2022/03/22 02:24:44;;;;;;;9.30;2.20;;;;;;;-148.56;100.00;61375.16;4951693;28;20031;-34
2022/03/22 02:27:09;;;;;;;2.92;2.00;;;;;;;-148.56;100.00;61375.16;4971089;28;20355;-31
2022/03/22 02:29:34;;;;;;;4.35;2.10;;;;;;;-148.56;100.00;61375.16;4965697;28;20110;-37
2022/03/22 02:32:01;;;;;;;3.00;2.03;;;;;;;-148.56;100.00;61375.16;4965561;28;20035;-39
2022/03/22 02:34:27;;;;;;;3.30;2.00;;;;;;;-148.56;100.00;61375.16;4952448;28;20066;-38
2022/03/22 02:36:52;;;;;;;3.17;2.03;;;;;;;-148.56;100.00;61375.16;4951397;28;20114;-37
2022/03/22 02:39:17;;;;;;;3.00;2.15;;;;;;;-148.56;100.00;61375.16;4969280;28;20641;-32
2022/03/22 02:41:43;;;;;;;2.92;2.00;;;;;;;-148.56;100.00;61375.16;4969198;28;21417;-35
2022/03/22 02:44:10;;;;;;;3.28;2.50;;;;;;;-148.56;100.00;61375.16;4966817;28;20045;-31
2022/03/22 02:46:36;;;;;;;5.18;2.33;;;;;;;-148.56;100.00;61375.16;4966536;28;20034;-35
2022/03/22 02:49:02;;;;;;;3.40;2.05;;;;;;;-148.56;100.00;61375.16;4967578;28;20034;-37
2022/03/22 02:51:27;;;;;;;2.95;2.00;;;;;;;-148.56;100.00;61375.16;4967714;28;20117;-39
2022/03/22 02:53:52;;;;;;;3.58;2.08;;;;;;;-148.56;100.00;61375.16;4965176;28;20026;-36
2022/03/22 02:56:19;;;;;;;2.67;2.00;;;;;;;-148.56;100.00;61375.16;4967859;28;20030;-37
2022/03/22 02:58:45;;;;;;;2.53;2.05;;;;;;;-148.56;100.00;61375.16;4968373;28;20037;-36
2022/03/22 03:01:10;;;;;;;2.85;2.00;;;;;;;-148.56;100.00;61375.16;4969725;28;20561;-36
2022/03/22 03:03:36;;;;;;;4.18;2.10;;;;;;;-148.56;100.00;61375.16;4966761;28;20045;-38
2022/03/22 03:06:01;;;;;;;2.83;2.17;;;;;;;-148.56;100.00;61375.16;4968561;28;20037;-33
2022/03/22 03:08:26;;;;;;;2.75;1.83;;;;;;;-148.56;100.00;61375.16;4967220;28;20026;-37
2022/03/22 03:10:53;;;;;;;3.70;1.92;;;;;;;-148.56;100.00;61375.16;4970792;28;20129;-38
2022/03/22 03:13:18;;;;;;;2.63;1.80;;;;;;;-148.56;100.00;61375.16;4966674;28;20034;-37
2022/03/22 03:15:44;;;;;;;2.97;2.10;;;;;;;-148.56;100.00;61375.16;4948506;28;20041;-31
2022/03/22 03:18:10;;;;;;;3.38;2.10;;;;;;;-148.56;100.00;61375.16;4968427;28;20030;-39
2022/03/22 03:20:35;;;;;;;2.95;1.85;;;;;;;-148.56;100.00;61375.16;4971316;28;20072;-37
2022/03/22 03:23:01;;;;;;;2.17;1.90;;;;;;;-148.56;100.00;61375.16;4966889;28;20042;-35
2022/03/22 03:25:27;;;;;;;2.33;1.80;;;;;;;-148.56;100.00;61375.16;4964917;28;20512;-39
2022/03/22 03:27:52;;;;;;;2.08;1.85;;;;;;;-148.56;100.00;61375.16;4973551;28;20058;-34
2022/03/22 03:30:18;;;;;;;4.68;2.20;;;;;;;-148.56;100.00;61375.16;4969860;28;20420;-34
2022/03/22 03:32:43;;;;;;;2.72;2.05;;;;;;;-148.56;100.00;61375.16;4971770;28;20027;-34
2022/03/22 03:35:08;;;;;;;2.55;2.10;;;;;;;-148.56;100.00;61375.16;4971671;28;20034;-40
2022/03/22 03:37:37;;;;;;;3.22;2.10;;;;;;;-148.56;100.00;61375.16;4972182;28;20058;-34
2022/03/22 03:40:04;;;;;;;2.28;2.00;;;;;;;-148.56;100.00;61375.16;4972966;28;20034;-37
2022/03/22 03:42:29;;;;;;;2.92;2.15;;;;;;;-148.56;100.00;61375.16;4970134;28;20074;-37
2022/03/22 03:47:38;;;;;;;2.35;1.90;;;;;;;-148.56;100.00;61375.16;4963666;28;20642;-36
2022/03/22 03:50:05;;;;;;;3.60;2.00;;;;;;;-148.56;100.00;61375.16;4971836;28;20042;-35
2022/03/22 03:52:35;;;;;;;2.92;2.20;;;;;;;-148.56;100.00;61375.16;4972016;28;21905;-37
2022/03/22 03:55:01;;;;;;;3.47;1.95;;;;;;;-148.56;100.00;61375.16;4969675;28;20050;-34
2022/03/22 03:57:26;;;;;;;3.25;1.80;;;;;;;-148.56;100.00;61375.16;4971645;28;20030;-35
2022/03/22 03:59:52;;;;;;;3.75;2.10;;;;;;;-148.56;100.00;61375.16;4973612;28;20030;-33
2022/03/22 04:02:18;;;;;;;2.67;1.95;;;;;;;-148.56;100.00;61375.16;4970795;28;20392;-31
2022/03/22 04:04:43;;;;;;;3.17;1.90;;;;;;;-148.56;100.00;61375.16;4971711;28;20061;-34
2022/03/22 04:07:10;;;;;;;2.38;1.90;;;;;;;-148.56;100.00;61375.16;4970934;28;20030;-33
2022/03/22 04:09:37;;;;;;;2.08;1.88;;;;;;;-148.56;100.00;61375.16;4973903;28;20019;-36
2022/03/22 04:12:03;;;;;;;2.35;2.00;;;;;;;-148.56;100.00;61375.16;4970881;28;20066;-34
2022/03/22 04:14:28;;;;;;;2.75;2.15;;;;;;;-148.56;100.00;61375.16;4968175;28;20030;-38
2022/03/22 04:16:56;;;;;;;2.83;1.85;;;;;;;-148.56;100.00;61375.16;4970660;28;20030;-38
2022/03/22 04:19:22;;;;;;;2.47;1.80;;;;;;;-148.56;100.00;61375.16;4972197;28;20109;-35
2022/03/22 04:21:47;;;;;;;2.10;1.70;;;;;;;-148.56;100.00;61375.16;4972579;28;20088;-35
2022/03/22 04:24:13;;;;;;;3.80;1.83;;;;;;;-148.56;100.00;61375.16;4953942;28;20718;-34
2022/03/22 04:26:39;;;;;;;2.80;1.77;;;;;;;-148.56;100.00;61375.16;4970117;28;20026;-35
2022/03/22 04:32:41;;;;;;;2.30;1.90;;;;;;;-148.56;100.00;61375.16;4969343;28;20746;-32
2022/03/22 04:34:41;;;;;;;3.47;1.70;;;;;;;-148.56;100.00;61375.16;4968339;28;20022;-36
2022/03/22 04:37:07;;;;;;;3.20;1.92;;;;;;;-148.56;100.00;61375.16;4970145;28;20837;-35
2022/03/22 04:39:33;;;;;;;3.03;1.70;;;;;;;-148.56;100.00;61375.16;4971548;28;20023;-34
2022/03/22 04:41:58;;;;;;;2.78;1.65;;;;;;;-148.56;100.00;61375.16;4968842;28;20037;-37
2022/03/22 04:44:28;;;;;;;2.35;1.70;;;;;;;-148.56;100.00;61375.16;4969246;28;20023;-33
2022/03/22 04:46:54;;;;;;;2.95;1.95;;;;;;;-148.56;100.00;61375.16;4968251;28;20054;-35
2022/03/22 04:49:20;;;;;;;2.95;1.90;;;;;;;-148.56;100.00;61375.16;4972420;28;20635;-33
2022/03/22 04:57:13;;;;;;;2.45;1.73;;;;;;;-148.56;100.00;61375.16;4967136;28;20546;-30
2022/03/22 04:59:38;;;;;;;7.60;3.78;;;;;;;-148.56;100.00;61375.16;4970394;28;20034;-33
2022/03/22 05:02:04;;;;;;;3.70;2.60;;;;;;;-148.56;100.00;61375.16;4953589;28;20097;-37
2022/03/22 05:04:29;;;;;;;3.80;2.47;;;;;;;-148.56;100.00;61375.16;4967688;28;20045;-33
2022/03/22 05:06:55;;;;;;;2.22;2.03;;;;;;;-148.56;100.00;61375.16;4968199;28;20062;-36
2022/03/22 05:09:22;;;;;;;2.67;2.00;;;;;;;-148.56;100.00;61375.16;4970509;28;20509;-35
2022/03/22 05:11:48;;;;;;;3.42;1.98;;;;;;;-148.56;100.00;61375.16;4969406;28;20034;-32
2022/03/22 05:14:13;;;;;;;2.83;2.08;;;;;;;-148.56;100.00;61375.16;4965728;28;20550;-32
2022/03/22 05:16:39;;;;;;;2.38;1.90;;;;;;;-148.56;100.00;61375.16;4969367;28;20118;-35
2022/03/22 05:19:04;;;;;;;3.65;1.80;;;;;;;-148.56;100.00;61375.16;4970711;28;20034;-35
2022/03/22 05:21:30;;;;;;;4.25;2.10;;;;;;;-148.56;100.00;61375.16;4967442;28;20029;-33
2022/03/22 05:23:55;;;;;;;3.72;2.00;;;;;;;-148.56;100.00;61375.16;4967456;28;20038;-35
2022/03/22 05:26:20;;;;;;;3.53;1.90;;;;;;;-148.56;100.00;61375.16;4970878;28;20038;-30
2022/03/22 05:28:46;;;;;;;3.42;1.88;;;;;;;-148.56;100.00;61375.16;4970840;28;20138;-37
2022/03/22 05:31:12;;;;;;;3.00;2.08;;;;;;;-148.56;100.00;61375.16;4969950;28;20853;-37
2022/03/22 05:33:38;;;;;;;2.17;1.90;;;;;;;-148.56;100.00;61375.16;4964379;28;20125;-38
2022/03/22 05:36:04;;;;;;;2.05;1.70;;;;;;;-148.56;100.00;61375.16;4967710;28;20033;-35
2022/03/22 05:38:30;;;;;;;2.90;1.88;;;;;;;-148.56;100.00;61375.16;4971199;28;20113;-36
2022/03/22 05:40:56;;;;;;;2.78;2.00;;;;;;;-148.56;100.00;61375.16;4969775;28;20022;-37
2022/03/22 05:43:21;;;;;;;2.45;1.95;;;;;;;-148.56;100.00;61375.16;4968542;28;20065;-34
2022/03/22 05:45:48;;;;;;;2.25;1.80;;;;;;;-148.56;100.00;61375.16;4967367;28;21183;-34
2022/03/22 05:48:15;;;;;;;2.78;1.88;;;;;;;-148.56;100.00;61375.16;4968342;28;20031;-38
2022/03/22 05:50:40;;;;;;;4.50;2.00;;;;;;;-148.56;100.00;61375.16;4969008;28;20049;-34
2022/03/22 05:53:05;;;;;;;2.83;1.80;;;;;;;-148.56;100.00;61375.16;4967171;28;20035;-35
2022/03/22 05:55:31;;;;;;;2.63;1.80;;;;;;;-148.56;100.00;61375.16;4967385;28;20408;-37
2022/03/22 05:57:56;;;;;;;2.10;1.63;;;;;;;-148.56;100.00;61375.16;4969898;28;20030;-35
2022/03/22 06:00:22;;;;;;;2.45;1.77;;;;;;;-148.56;100.00;61375.16;4969108;28;20026;-38
2022/03/22 06:02:47;;;;;;;1.98;1.75;;;;;;;-148.56;100.00;61375.16;4969527;28;20027;-35
2022/03/22 06:05:14;;;;;;;2.38;1.70;;;;;;;-148.56;100.00;61375.16;4971140;28;20388;-35
2022/03/22 06:07:40;;;;;;;2.22;1.85;;;;;;;-148.56;100.00;61375.16;4968924;28;20034;-37
2022/03/22 06:10:06;;;;;;;3.40;1.98;;;;;;;-148.56;100.00;61375.16;4971015;28;20038;-32
2022/03/22 06:12:39;;;;;;;4.00;2.00;;;;;;;-148.56;100.00;61375.16;4966013;28;20109;-39
2022/03/22 06:15:14;;;;;;;3.25;1.60;;;;;;;-148.56;100.00;61375.16;4969286;28;20480;-37
2022/03/22 06:17:40;;;;;;;1.95;1.63;;;;;;;-148.56;100.00;61375.16;4967969;28;20506;-35
2022/03/22 06:20:06;;;;;;;2.08;1.85;;;;;;;-148.56;100.00;61375.16;4970292;28;20030;-34
2022/03/22 06:22:32;;;;;;;2.20;1.90;;;;;;;-148.56;100.00;61375.16;4971909;28;20104;-35
2022/03/22 06:24:57;;;;;;;1.92;1.70;;;;;;;-148.56;100.00;61375.16;4970214;28;20030;-34
2022/03/22 06:27:23;;;;;;;3.53;1.98;;;;;;;-148.56;100.00;61375.16;4969104;28;20033;-32
2022/03/22 06:29:48;;;;;;;1.90;1.60;;;;;;;-148.56;100.00;61375.16;4968870;28;20031;-34
2022/03/22 06:32:13;;;;;;;3.38;1.80;;;;;;;-148.56;100.00;61375.16;4969280;28;20473;-40
2022/03/22 06:34:39;;;;;;;1.60;1.50;;;;;;;-148.56;100.00;61375.16;4968265;28;20058;-33
2022/03/22 06:37:04;;;;;;;2.15;1.77;;;;;;;-148.56;100.00;61375.16;4968641;28;20081;-34
2022/03/22 06:39:30;;;;;;;3.80;2.05;;;;;;;-148.56;100.00;61375.16;4969584;28;20026;-36
2022/03/22 06:41:55;;;;;;;2.30;1.77;;;;;;;-148.56;100.00;61375.16;4968740;28;20027;-36
2022/03/22 06:44:21;;;;;;;1.73;1.60;;;;;;;-148.56;100.00;61375.16;4961772;28;20124;-40
2022/03/22 06:46:46;;;;;;;2.55;1.73;;;;;;;-148.56;100.00;61375.16;4943538;28;20479;-39
2022/03/22 06:49:12;;;;;;;1.95;1.42;;;;;;;-148.56;100.00;61375.16;4951332;28;20031;-35
2022/03/22 06:51:37;;;;;;;5.13;1.80;;;;;;;-148.56;100.00;61375.16;4952449;28;20023;-34
2022/03/22 06:54:03;;;;;;;2.42;1.92;;;;;;;-148.56;100.00;61375.16;4951617;28;20413;-37
2022/03/22 06:56:28;;;;;;;4.65;2.20;;;;;;;-148.56;100.00;61375.16;4952740;28;21107;-36
2022/03/22 06:58:54;;;;;;;4.95;2.13;;;;;;;-148.56;100.00;61375.16;4951607;28;20030;-37
2022/03/22 07:01:19;;;;;;;5.45;2.83;;;;;;;-148.56;100.00;61375.16;4954398;28;20084;-38
2022/03/22 07:03:45;;;;;;;6.68;3.15;;;;;;;-148.56;100.00;61375.16;4966218;28;20042;-36
2022/03/22 07:06:10;;;;;;;9.02;3.08;;;;;;;-148.56;100.00;61375.16;4967732;28;20038;-36
2022/03/22 07:08:36;;;;;;;5.53;2.40;;;;;;;-148.56;100.00;61375.16;4969487;28;20030;-39
2022/03/22 07:13:59;;;;;;;8.18;2.50;;;;;;;-148.56;100.00;61375.16;4942824;28;20467;-36
2022/03/22 07:16:27;;;;;;;9.40;2.53;;;;;;;-148.56;100.00;61375.16;4969348;28;20054;-37
2022/03/22 07:18:53;;;;;;;6.88;2.75;;;;;;;-148.56;100.00;61375.16;4971970;28;20670;-39
2022/03/22 07:21:19;;;;;;;5.25;2.40;;;;;;;-148.56;100.00;61375.16;4971531;28;20030;-34
2022/03/22 07:23:44;;;;;;;6.57;2.80;;;;;;;-148.56;100.00;61375.16;4970402;28;20404;-34
2022/03/22 07:26:10;;;;;;;7.85;2.80;;;;;;;-148.56;100.00;61375.16;4971469;28;20030;-38
2022/03/22 07:28:35;;;;;;;4.15;2.45;;;;;;;-148.56;100.00;61375.16;4970979;28;20026;-31
2022/03/22 07:31:01;;;;;;;5.00;2.60;;;;;;;-148.56;100.00;61375.16;4973339;28;20030;-34
2022/03/22 07:33:27;;;;;;;6.88;3.05;;;;;;;-148.56;100.00;61375.16;4968211;28;20026;-35
2022/03/22 07:35:52;;;;;;;6.90;3.13;;;;;;;-148.56;100.00;61375.16;4967635;28;20092;-33
2022/03/22 07:38:18;;;;;;;5.80;2.90;;;;;;;-148.56;100.00;61375.16;4970164;28;20041;-38
2022/03/22 07:40:43;;;;;;;6.55;3.20;;;;;;;-148.56;100.00;61375.16;4964183;28;20027;-35
2022/03/22 07:43:08;;;;;;;7.07;3.28;;;;;;;-148.56;100.00;61375.16;4967852;28;20038;-31
2022/03/22 07:45:36;;;;;;;7.80;3.03;;;;;;;-148.56;100.00;61375.16;4969055;28;20097;-37
2022/03/22 07:48:02;;;;;;;6.03;3.17;;;;;;;-148.56;100.00;61375.16;4971852;28;20782;-38
2022/03/22 07:53:12;;;;;;;9.55;3.65;;;;;;;-148.56;100.00;61375.16;4970867;28;20064;-36
2022/03/22 07:55:38;;;;;;;9.38;3.72;;;;;;;-148.56;100.00;61375.16;4970933;28;20027;-35
2022/03/22 07:58:07;;;;;;;7.13;3.28;;;;;;;-148.56;100.00;61375.16;4973116;28;20023;-33
2022/03/22 08:00:35;;;;;;;8.85;3.40;;;;;;;-148.56;100.00;61375.16;4973191;28;20093;-36
2022/03/22 08:03:03;;;;;;;7.22;3.00;;;;;;;-148.56;100.00;61375.16;4942616;28;20030;-35
2022/03/22 08:05:29;;;;;;;8.10;3.38;;;;;;;-148.56;100.00;61375.16;4917825;28;20042;-36
2022/03/22 08:07:54;;;;;;;7.55;3.20;;;;;;;-148.56;100.00;61375.16;4935186;28;20080;-37
2022/03/22 08:10:23;;;;;;;8.02;3.08;;;;;;;-148.56;100.00;61375.16;4933283;28;20724;-35
2022/03/22 08:12:48;;;;;;;7.28;3.10;;;;;;;-148.56;100.00;61375.16;4928450;28;20038;-34
2022/03/22 08:15:14;;;;;;;8.43;3.60;;;;;;;-148.56;100.00;61375.16;4910413;28;20429;-39
2022/03/22 08:17:39;;;;;;;9.38;3.67;;;;;;;-148.56;100.00;61375.16;4929918;28;20034;-38
2022/03/22 08:20:07;;;;;;;8.40;3.55;;;;;;;-148.56;100.00;61375.16;4912347;28;20039;-38
2022/03/22 08:22:33;;;;;;;6.10;3.20;;;;;;;-148.56;100.00;61375.16;4928494;28;20713;-38
2022/03/22 08:24:59;;;;;;;5.80;3.28;;;;;;;-148.56;100.00;61375.16;4933696;28;20034;-40
2022/03/22 08:27:24;;;;;;;6.53;3.35;;;;;;;-148.56;100.00;61375.16;4932909;28;20053;-36
2022/03/22 08:29:51;;;;;;;6.95;2.90;;;;;;;-148.56;100.00;61375.16;4925915;28;20072;-35
2022/03/22 08:32:16;;;;;;;6.30;3.00;;;;;;;-148.56;100.00;61375.16;4935418;28;20022;-32
2022/03/22 08:34:42;;;;;;;6.78;2.97;;;;;;;-148.56;100.00;61375.16;4930869;28;20105;-35
2022/03/22 08:37:07;;;;;;;5.28;3.05;;;;;;;-148.56;100.00;61375.16;4934288;28;20041;-32
2022/03/22 08:39:33;;;;;;;5.03;3.15;;;;;;;-148.56;100.00;61375.16;4912472;28;22037;-35
2022/03/22 08:41:58;;;;;;;6.13;2.75;;;;;;;-148.56;100.00;61375.16;4926402;28;20031;-29
2022/03/22 08:44:24;;;;;;;6.10;3.22;;;;;;;-148.56;100.00;61375.16;4927495;28;20501;-32
2022/03/22 08:46:51;;;;;;;6.60;3.10;;;;;;;-148.56;100.00;61375.16;4925067;28;20038;-34
2022/03/22 08:49:17;;;;;;;5.38;2.83;;;;;;;-148.56;100.00;61375.16;4929561;28;20057;-30
2022/03/22 08:51:42;;;;;;;8.82;2.70;;;;;;;-148.56;100.00;61375.16;4935409;28;20993;-30
2022/03/22 08:54:07;;;;;;;7.22;2.95;;;;;;;-148.56;100.00;61375.16;4932787;28;20038;-31
2022/03/22 08:56:33;;;;;;;5.80;3.00;;;;;;;-148.56;100.00;61375.16;4935834;28;20489;-37
2022/03/22 08:59:00;;;;;;;6.85;3.03;;;;;;;-148.56;100.00;61375.16;4928870;28;20053;-33
2022/03/22 09:01:27;;;;;;;5.80;2.75;;;;;;;-148.56;100.00;61375.16;4937479;28;20023;-35
2022/03/22 09:06:38;;;;;;;12.93;8.00;;;;;;;-148.56;100.00;61375.16;4965852;28;20072;-38
2022/03/22 09:09:04;;;;;;;20.42;11.40;;;;;;;-148.56;100.00;61375.16;4964355;28;20030;-32
2022/03/22 09:11:29;;;;;;;14.70;10.95;;;;;;;-148.56;100.00;61375.16;4963203;28;20027;-35
2022/03/22 09:13:55;;;;;;;14.23;11.95;;;;;;;-148.56;100.00;61375.16;4964263;28;20089;-36
2022/03/22 09:16:21;;;;;;;17.85;11.57;;;;;;;-148.56;100.00;61375.16;4968558;28;20410;-34
2022/03/22 09:18:47;;;;;;;21.20;12.07;;;;;;;-148.56;100.00;61375.16;4963114;28;20092;-34
2022/03/22 09:21:12;;;;;;;20.75;11.63;;;;;;;-148.56;100.00;61375.16;4949767;28;20848;-30
2022/03/22 09:23:40;;;;;;;18.27;9.75;;;;;;;-148.56;100.00;61375.16;4964484;28;20702;-34
2022/03/22 09:26:07;;;;;;;17.05;9.38;;;;;;;-148.56;100.00;61375.16;4968958;28;20023;-32
2022/03/22 09:28:32;;;;;;;16.08;8.45;;;;;;;-148.56;100.00;61375.16;4969340;28;20912;-36
2022/03/22 09:30:57;;;;;;;10.60;7.63;;;;;;;-148.56;100.00;61375.16;4949606;28;20085;-37
2022/03/22 09:33:23;;;;;;;11.80;6.70;;;;;;;-148.56;100.00;61375.16;4966645;28;20022;-35
2022/03/22 09:35:48;;;;;;;12.82;6.90;;;;;;;-148.56;100.00;61375.16;4970563;28;20034;-33
2022/03/22 09:38:14;;;;;;;10.25;6.43;;;;;;;-148.56;100.00;61375.16;4968626;28;20739;-32
2022/03/22 09:40:40;;;;;;;12.75;6.55;;;;;;;-148.56;100.00;61375.16;4958910;28;20655;-34
2022/03/22 09:43:07;;;;;;;10.82;6.25;;;;;;;-148.56;100.00;61375.16;4968851;28;20038;-34
2022/03/22 09:45:33;;;;;;;8.48;6.00;;;;;;;-148.56;100.00;61375.16;4944306;28;20054;-33
2022/03/22 09:47:59;;;;;;;7.88;5.68;;;;;;;-148.56;100.00;61375.16;4961906;28;20026;-28
2022/03/22 09:53:10;;;;;;;10.38;5.65;;;;;;;-148.56;100.00;61375.16;4963923;28;20073;-35
2022/03/22 09:55:35;;;;;;;9.88;5.20;;;;;;;-148.56;100.00;61375.16;4964177;28;20045;-35
2022/03/22 09:58:01;;;;;;;9.25;5.20;;;;;;;-148.56;100.00;61375.16;4946945;28;20033;-31
2022/03/22 10:00:27;;;;;;;14.23;5.50;;;;;;;-148.56;100.00;61375.16;4962065;28;20405;-35
2022/03/22 10:02:52;;;;;;;14.25;9.40;;;;;;;-148.56;100.00;61375.16;4963130;28;20057;-38
2022/03/22 10:05:22;;;;;;;15.05;9.95;;;;;;;-148.56;100.00;61375.16;4969239;28;20052;-34
2022/03/22 10:08:15;;;;;;;13.23;10.48;;;;;;;-148.56;100.00;61375.16;4968133;28;20581;-34
2022/03/22 10:10:53;;;;;;;13.25;9.63;;;;;;;-148.56;100.00;61375.16;4968231;28;20038;-36
2022/03/22 10:13:19;;;;;;;19.38;10.18;;;;;;;-148.56;100.00;61375.16;4965545;28;20103;-37
2022/03/22 10:15:45;;;;;;;15.48;9.70;;;;;;;-148.56;100.00;61375.16;4968459;28;20023;-38
2022/03/22 10:18:10;;;;;;;8.63;6.70;;;;;;;-148.56;100.00;61375.16;4951263;28;20034;-33
2022/03/22 10:20:40;;;;;;;10.30;7.70;;;;;;;-148.56;100.00;61375.16;4967414;28;20672;-36
2022/03/22 10:23:07;;;;;;;14.32;8.95;;;;;;;-148.56;100.00;61375.16;4966249;28;20023;-31
2022/03/22 10:25:33;;;;;;;14.13;8.13;;;;;;;-148.56;100.00;61375.16;4965251;28;20023;-32
2022/03/22 10:28:03;;;;;;;15.75;8.25;;;;;;;-148.56;100.00;61375.16;4964226;28;20037;-33
2022/03/22 10:30:28;;;;;;;20.50;8.57;;;;;;;-148.56;100.00;61375.16;4964108;28;20085;-36
2022/03/22 10:32:54;;;;;;;19.23;8.38;;;;;;;-148.56;100.00;61375.16;4960977;28;20041;-33
2022/03/22 10:35:23;;;;;;;13.55;6.53;;;;;;;-148.56;100.00;61375.16;4966479;28;20041;-36
2022/03/22 10:37:56;;;;;;;17.35;6.25;;;;;;;-148.56;100.00;61375.16;4964561;28;20485;-33
2022/03/22 10:40:44;;;;;;;27.13;8.60;;;;;;;-148.56;100.00;61375.16;4972359;28;20030;-35
2022/03/22 10:43:09;;;;;;;22.05;8.18;;;;;;;-148.56;100.00;61375.16;4970883;28;20105;-36
2022/03/22 10:45:41;;;;;;;36.58;9.27;;;;;;;-148.56;100.00;61375.16;4967642;28;20037;-35
2022/03/22 10:48:07;;;;;;;25.70;8.10;;;;;;;-148.56;100.00;61375.16;4972893;28;20046;-36
2022/03/22 10:50:38;;;;;;;28.85;9.00;;;;;;;-148.56;100.00;61375.16;4973552;28;20018;-34
2022/03/22 10:53:04;;;;;;;24.20;7.68;;;;;;;-148.56;100.00;61375.16;4974229;28;20030;-34
2022/03/22 10:55:30;;;;;;;18.05;7.70;;;;;;;-148.56;100.00;61375.16;4972228;28;20065;-35
2022/03/22 10:57:59;;;;;;;26.67;7.55;;;;;;;-148.56;100.00;61375.16;4972679;28;20030;-32
2022/03/22 11:00:25;;;;;;;23.92;7.38;;;;;;;-148.56;100.00;61375.16;4973336;28;20034;-36
2022/03/22 11:02:53;;;;;;;34.60;6.85;;;;;;;-148.56;100.00;61375.16;4972426;28;20037;-41
2022/03/22 11:05:19;;;;;;;20.83;7.28;;;;;;;-148.56;100.00;61375.16;4969063;28;21125;-30
2022/03/22 11:07:46;;;;;;;17.50;7.32;;;;;;;-148.56;100.00;61375.16;4973582;28;20030;-33
2022/03/22 11:10:11;;;;;;;17.08;6.55;;;;;;;-148.56;100.00;61375.16;4972694;28;20134;-37
2022/03/22 11:12:37;;;;;;;20.88;6.97;;;;;;;-148.56;100.00;61375.16;4971160;28;20035;-34
2022/03/22 11:15:03;;;;;;;15.15;7.03;;;;;;;-148.56;100.00;61375.16;4937881;28;20019;-38
2022/03/22 11:17:29;;;;;;;15.48;6.63;;;;;;;-148.56;100.00;61375.16;4963324;28;20690;-33
2022/03/22 11:19:58;;;;;;;20.75;6.80;;;;;;;-148.56;100.00;61375.16;4972205;28;20492;-38
2022/03/22 11:22:24;;;;;;;17.02;6.93;;;;;;;-148.56;100.00;61375.16;4943199;28;20026;-30
2022/03/22 11:24:49;;;;;;;18.38;6.32;;;;;;;-148.56;100.00;61375.16;4972560;28;20030;-34
2022/03/22 11:27:15;;;;;;;11.88;6.32;;;;;;;-148.56;100.00;61375.16;4973296;28;20034;-35
2022/03/22 11:29:40;;;;;;;13.73;6.55;;;;;;;-148.56;100.00;61375.16;4971129;28;20034;-37